sensor_id;sensor_type;location;lat;lon;timestamp;pressure;altitude;pressure_sealevel;temperature;humidity
24390;BME280;12510;56.468;-3.004;2022-08-01T00:01:24;100861.66;;;18.40;100.00
24390;BME280;12510;56.468;-3.004;2022-08-01T00:03:50;100862.03;;;18.37;100.00
24390;BME280;12510;56.468;-3.004;2022-08-01T00:06:17;100857.97;;;18.41;100.00
24390;BME280;12510;56.468;-3.004;2022-08-01T00:08:43;100856.69;;;18.37;100.00
24390;BME280;12510;56.468;-3.004;2022-08-01T00:11:10;100859.88;;;18.32;100.00
24390;BME280;12510;56.468;-3.004;2022-08-01T00:13:36;100859.94;;;18.09;100.00
24390;BME280;12510;56.468;-3.004;2022-08-01T00:16:03;100862.69;;;18.01;100.00
24390;BME280;12510;56.468;-3.004;2022-08-01T00:18:29;100856.88;;;17.97;100.00
24390;BME280;12510;56.468;-3.004;2022-08-01T00:20:55;100848.22;;;17.72;100.00
24390;BME280;12510;56.468;-3.004;2022-08-01T00:23:22;100846.59;;;17.71;100.00
24390;BME280;12510;56.468;-3.004;2022-08-01T00:25:48;100839.91;;;17.67;100.00
24390;BME280;12510;56.468;-3.004;2022-08-01T00:28:14;100834.34;;;17.62;100.00
24390;BME280;12510;56.468;-3.004;2022-08-01T00:30:42;100838.38;;;17.49;100.00
24390;BME280;12510;56.468;-3.004;2022-08-01T00:33:08;100831.88;;;17.29;100.00
24390;BME280;12510;56.468;-3.004;2022-08-01T00:35:35;100829.88;;;17.31;100.00
24390;BME280;12510;56.468;-3.004;2022-08-01T00:38:01;100827.38;;;17.29;100.00
24390;BME280;12510;56.468;-3.004;2022-08-01T00:40:28;100822.69;;;17.08;100.00
24390;BME280;12510;56.468;-3.004;2022-08-01T00:42:54;100828.16;;;17.06;100.00
24390;BME280;12510;56.468;-3.004;2022-08-01T00:45:20;100821.53;;;17.02;100.00
24390;BME280;12510;56.468;-3.004;2022-08-01T00:47:47;100819.91;;;16.93;100.00
24390;BME280;12510;56.468;-3.004;2022-08-01T00:50:14;100813.78;;;16.84;100.00
24390;BME280;12510;56.468;-3.004;2022-08-01T00:52:40;100815.94;;;16.81;100.00
24390;BME280;12510;56.468;-3.004;2022-08-01T00:55:08;100822.63;;;16.76;100.00
24390;BME280;12510;56.468;-3.004;2022-08-01T00:57:35;100816.66;;;16.74;100.00
24390;BME280;12510;56.468;-3.004;2022-08-01T01:00:03;100819.81;;;16.70;100.00
24390;BME280;12510;56.468;-3.004;2022-08-01T01:02:30;100809.25;;;16.93;100.00
24390;BME280;12510;56.468;-3.004;2022-08-01T01:04:56;100811.38;;;17.06;100.00
24390;BME280;12510;56.468;-3.004;2022-08-01T01:07:43;100808.03;;;17.12;100.00
24390;BME280;12510;56.468;-3.004;2022-08-01T01:13:18;100801.13;;;17.26;100.00
24390;BME280;12510;56.468;-3.004;2022-08-01T01:16:31;100801.59;;;17.30;100.00
24390;BME280;12510;56.468;-3.004;2022-08-01T01:24:03;100800.75;;;17.29;100.00
24390;BME280;12510;56.468;-3.004;2022-08-01T01:27:01;100807.03;;;17.36;100.00
24390;BME280;12510;56.468;-3.004;2022-08-01T01:29:51;100792.06;;;17.35;100.00
24390;BME280;12510;56.468;-3.004;2022-08-01T01:34:54;100810.16;;;17.40;100.00
24390;BME280;12510;56.468;-3.004;2022-08-01T01:37:25;100808.03;;;17.35;100.00
24390;BME280;12510;56.468;-3.004;2022-08-01T01:39:52;100811.75;;;17.26;100.00
24390;BME280;12510;56.468;-3.004;2022-08-01T01:42:20;100804.31;;;16.90;100.00
24390;BME280;12510;56.468;-3.004;2022-08-01T01:44:50;100804.97;;;16.92;100.00
24390;BME280;12510;56.468;-3.004;2022-08-01T01:47:17;100807.94;;;16.97;100.00
24390;BME280;12510;56.468;-3.004;2022-08-01T01:49:46;100803.81;;;16.78;100.00
24390;BME280;12510;56.468;-3.004;2022-08-01T01:52:15;100805.00;;;16.75;100.00
24390;BME280;12510;56.468;-3.004;2022-08-01T01:54:46;100793.75;;;16.65;100.00
24390;BME280;12510;56.468;-3.004;2022-08-01T01:57:14;100796.31;;;16.50;100.00
24390;BME280;12510;56.468;-3.004;2022-08-01T01:59:42;100790.53;;;16.38;100.00
24390;BME280;12510;56.468;-3.004;2022-08-01T02:02:11;100792.50;;;16.36;100.00
24390;BME280;12510;56.468;-3.004;2022-08-01T02:04:41;100797.47;;;16.39;100.00
24390;BME280;12510;56.468;-3.004;2022-08-01T02:07:16;100797.00;;;16.36;100.00
24390;BME280;12510;56.468;-3.004;2022-08-01T02:09:43;100785.25;;;16.30;100.00
24390;BME280;12510;56.468;-3.004;2022-08-01T02:12:13;100799.03;;;16.25;100.00
24390;BME280;12510;56.468;-3.004;2022-08-01T02:14:41;100783.59;;;16.21;100.00
24390;BME280;12510;56.468;-3.004;2022-08-01T02:17:16;100790.25;;;16.17;100.00
24390;BME280;12510;56.468;-3.004;2022-08-01T02:19:42;100788.41;;;16.17;100.00
24390;BME280;12510;56.468;-3.004;2022-08-01T02:22:19;100784.59;;;16.12;100.00
24390;BME280;12510;56.468;-3.004;2022-08-01T02:30:23;100792.28;;;15.98;100.00
24390;BME280;12510;56.468;-3.004;2022-08-01T02:32:56;100795.91;;;15.97;100.00
24390;BME280;12510;56.468;-3.004;2022-08-01T02:35:28;100787.97;;;15.89;100.00
24390;BME280;12510;56.468;-3.004;2022-08-01T02:37:56;100782.13;;;16.10;100.00
24390;BME280;12510;56.468;-3.004;2022-08-01T02:40:26;100780.25;;;16.27;100.00
24390;BME280;12510;56.468;-3.004;2022-08-01T02:42:54;100781.38;;;16.41;100.00
24390;BME280;12510;56.468;-3.004;2022-08-01T02:45:25;100784.84;;;16.41;100.00
24390;BME280;12510;56.468;-3.004;2022-08-01T02:48:00;100771.41;;;16.43;100.00
24390;BME280;12510;56.468;-3.004;2022-08-01T02:50:29;100776.56;;;16.36;100.00
24390;BME280;12510;56.468;-3.004;2022-08-01T02:52:58;100771.75;;;16.40;100.00
24390;BME280;12510;56.468;-3.004;2022-08-01T02:55:27;100776.75;;;16.35;100.00
24390;BME280;12510;56.468;-3.004;2022-08-01T02:57:55;100768.44;;;16.30;100.00
24390;BME280;12510;56.468;-3.004;2022-08-01T03:00:23;100767.63;;;16.29;100.00
24390;BME280;12510;56.468;-3.004;2022-08-01T03:02:52;100765.97;;;16.28;100.00
24390;BME280;12510;56.468;-3.004;2022-08-01T03:05:20;100772.66;;;16.16;100.00
24390;BME280;12510;56.468;-3.004;2022-08-01T03:07:47;100769.31;;;16.14;100.00
24390;BME280;12510;56.468;-3.004;2022-08-01T03:10:16;100762.06;;;15.91;100.00
24390;BME280;12510;56.468;-3.004;2022-08-01T03:12:44;100757.41;;;15.93;100.00
24390;BME280;12510;56.468;-3.004;2022-08-01T03:15:12;100759.72;;;15.96;100.00
24390;BME280;12510;56.468;-3.004;2022-08-01T03:17:41;100761.88;;;16.01;100.00
24390;BME280;12510;56.468;-3.004;2022-08-01T03:20:11;100760.56;;;16.05;100.00
24390;BME280;12510;56.468;-3.004;2022-08-01T03:22:40;100763.38;;;16.03;100.00
24390;BME280;12510;56.468;-3.004;2022-08-01T03:25:09;100768.22;;;15.91;100.00
24390;BME280;12510;56.468;-3.004;2022-08-01T03:27:36;100768.38;;;15.82;100.00
24390;BME280;12510;56.468;-3.004;2022-08-01T03:30:05;100755.06;;;15.65;100.00
24390;BME280;12510;56.468;-3.004;2022-08-01T03:32:32;100749.78;;;15.57;100.00
24390;BME280;12510;56.468;-3.004;2022-08-01T03:34:59;100753.25;;;15.24;100.00
24390;BME280;12510;56.468;-3.004;2022-08-01T03:37:28;100755.72;;;15.42;100.00
24390;BME280;12510;56.468;-3.004;2022-08-01T03:40:04;100752.09;;;15.44;100.00
24390;BME280;12510;56.468;-3.004;2022-08-01T03:42:36;100756.03;;;15.15;100.00
24390;BME280;12510;56.468;-3.004;2022-08-01T03:45:06;100757.84;;;15.06;100.00
24390;BME280;12510;56.468;-3.004;2022-08-01T03:47:35;100767.66;;;15.22;100.00
24390;BME280;12510;56.468;-3.004;2022-08-01T03:50:04;100767.13;;;14.94;100.00
24390;BME280;12510;56.468;-3.004;2022-08-01T03:52:33;100751.22;;;15.02;100.00
24390;BME280;12510;56.468;-3.004;2022-08-01T03:55:05;100752.38;;;15.07;100.00
24390;BME280;12510;56.468;-3.004;2022-08-01T03:57:35;100749.22;;;15.04;100.00
24390;BME280;12510;56.468;-3.004;2022-08-01T04:00:04;100749.06;;;15.05;100.00
24390;BME280;12510;56.468;-3.004;2022-08-01T04:02:38;100749.06;;;15.05;100.00
24390;BME280;12510;56.468;-3.004;2022-08-01T04:05:05;100753.53;;;15.05;100.00
24390;BME280;12510;56.468;-3.004;2022-08-01T04:07:33;100760.50;;;15.06;100.00
24390;BME280;12510;56.468;-3.004;2022-08-01T04:10:03;100751.06;;;15.03;100.00
24390;BME280;12510;56.468;-3.004;2022-08-01T04:12:30;100759.03;;;15.20;100.00
24390;BME280;12510;56.468;-3.004;2022-08-01T04:14:57;100758.56;;;15.24;100.00
24390;BME280;12510;56.468;-3.004;2022-08-01T04:17:23;100752.25;;;15.42;100.00
24390;BME280;12510;56.468;-3.004;2022-08-01T04:19:50;100745.97;;;15.59;100.00
24390;BME280;12510;56.468;-3.004;2022-08-01T04:22:17;100747.63;;;15.69;100.00
24390;BME280;12510;56.468;-3.004;2022-08-01T04:24:46;100742.78;;;15.64;100.00
24390;BME280;12510;56.468;-3.004;2022-08-01T04:27:25;100753.41;;;15.64;100.00
24390;BME280;12510;56.468;-3.004;2022-08-01T04:29:56;100752.09;;;15.44;100.00
24390;BME280;12510;56.468;-3.004;2022-08-01T04:32:26;100751.09;;;15.69;100.00
24390;BME280;12510;56.468;-3.004;2022-08-01T04:34:54;100753.59;;;15.46;100.00
24390;BME280;12510;56.468;-3.004;2022-08-01T04:37:24;100751.41;;;15.41;100.00
24390;BME280;12510;56.468;-3.004;2022-08-01T04:39:55;100740.16;;;15.39;100.00
24390;BME280;12510;56.468;-3.004;2022-08-01T04:42:22;100744.13;;;15.44;100.00
24390;BME280;12510;56.468;-3.004;2022-08-01T04:44:49;100752.75;;;15.29;100.00
24390;BME280;12510;56.468;-3.004;2022-08-01T04:47:16;100748.47;;;15.45;100.00
24390;BME280;12510;56.468;-3.004;2022-08-01T04:49:44;100753.72;;;15.36;100.00
24390;BME280;12510;56.468;-3.004;2022-08-01T04:52:12;100747.78;;;15.51;100.00
24390;BME280;12510;56.468;-3.004;2022-08-01T04:54:38;100751.75;;;15.55;100.00
24390;BME280;12510;56.468;-3.004;2022-08-01T04:57:05;100752.09;;;15.52;100.00
24390;BME280;12510;56.468;-3.004;2022-08-01T04:59:34;100747.47;;;15.54;100.00
24390;BME280;12510;56.468;-3.004;2022-08-01T05:02:14;100751.75;;;15.55;100.00
24390;BME280;12510;56.468;-3.004;2022-08-01T05:04:42;100754.06;;;15.50;100.00
24390;BME280;12510;56.468;-3.004;2022-08-01T05:07:09;100755.91;;;15.66;100.00
24390;BME280;12510;56.468;-3.004;2022-08-01T05:09:37;100751.09;;;15.53;100.00
24390;BME280;12510;56.468;-3.004;2022-08-01T05:12:05;100757.91;;;15.72;100.00
24390;BME280;12510;56.468;-3.004;2022-08-01T05:14:32;100765.50;;;15.75;100.00
24390;BME280;12510;56.468;-3.004;2022-08-01T05:17:03;100758.56;;;15.99;100.00
24390;BME280;12510;56.468;-3.004;2022-08-01T05:19:30;100762.69;;;16.09;100.00
24390;BME280;12510;56.468;-3.004;2022-08-01T05:22:01;100761.38;;;16.05;100.00
24390;BME280;12510;56.468;-3.004;2022-08-01T05:24:27;100762.38;;;15.96;100.00
24390;BME280;12510;56.468;-3.004;2022-08-01T05:26:55;100754.38;;;16.04;100.00
24390;BME280;12510;56.468;-3.004;2022-08-01T05:29:22;100759.81;;;16.36;100.00
24390;BME280;12510;56.468;-3.004;2022-08-01T05:31:48;100753.75;;;16.58;100.00
24390;BME280;12510;56.468;-3.004;2022-08-01T05:34:14;100755.81;;;16.40;100.00
24390;BME280;12510;56.468;-3.004;2022-08-01T05:36:41;100751.13;;;16.42;100.00
24390;BME280;12510;56.468;-3.004;2022-08-01T05:39:08;100749.16;;;16.36;100.00
24390;BME280;12510;56.468;-3.004;2022-08-01T05:41:35;100746.91;;;16.16;100.00
24390;BME280;12510;56.468;-3.004;2022-08-01T05:44:03;100753.09;;;15.84;100.00
24390;BME280;12510;56.468;-3.004;2022-08-01T05:46:30;100750.09;;;15.87;100.00
24390;BME280;12510;56.468;-3.004;2022-08-01T05:48:58;100746.28;;;15.98;100.00
24390;BME280;12510;56.468;-3.004;2022-08-01T05:51:24;100742.44;;;16.00;100.00
24390;BME280;12510;56.468;-3.004;2022-08-01T05:53:52;100742.59;;;16.07;100.00
24390;BME280;12510;56.468;-3.004;2022-08-01T05:56:18;100735.47;;;15.99;100.00
24390;BME280;12510;56.468;-3.004;2022-08-01T05:58:45;100746.09;;;16.07;100.00
24390;BME280;12510;56.468;-3.004;2022-08-01T06:01:11;100745.63;;;15.46;100.00
24390;BME280;12510;56.468;-3.004;2022-08-01T06:03:38;100742.78;;;15.72;100.00
24390;BME280;12510;56.468;-3.004;2022-08-01T06:06:04;100749.09;;;15.80;100.00
24390;BME280;12510;56.468;-3.004;2022-08-01T06:08:31;100755.75;;;15.75;100.00
24390;BME280;12510;56.468;-3.004;2022-08-01T06:10:58;100753.41;;;15.48;100.00
24390;BME280;12510;56.468;-3.004;2022-08-01T06:13:24;100752.91;;;15.28;100.00
24390;BME280;12510;56.468;-3.004;2022-08-01T06:15:51;100757.41;;;15.60;100.00
24390;BME280;12510;56.468;-3.004;2022-08-01T06:18:17;100757.22;;;15.53;100.00
24390;BME280;12510;56.468;-3.004;2022-08-01T06:20:44;100753.75;;;16.02;100.00
24390;BME280;12510;56.468;-3.004;2022-08-01T06:23:11;100757.75;;;15.49;100.00
24390;BME280;12510;56.468;-3.004;2022-08-01T06:25:37;100757.75;;;15.98;100.00
24390;BME280;12510;56.468;-3.004;2022-08-01T06:28:03;100764.53;;;16.09;100.00
24390;BME280;12510;56.468;-3.004;2022-08-01T06:30:30;100752.06;;;15.76;100.00
24390;BME280;12510;56.468;-3.004;2022-08-01T06:32:56;100755.25;;;15.80;100.00
24390;BME280;12510;56.468;-3.004;2022-08-01T06:35:24;100750.38;;;16.25;100.00
24390;BME280;12510;56.468;-3.004;2022-08-01T06:37:51;100742.56;;;16.15;100.00
24390;BME280;12510;56.468;-3.004;2022-08-01T06:40:17;100746.72;;;16.18;100.00
24390;BME280;12510;56.468;-3.004;2022-08-01T06:42:44;100750.44;;;15.92;100.00
24390;BME280;12510;56.468;-3.004;2022-08-01T06:45:12;100743.97;;;15.95;100.00
24390;BME280;12510;56.468;-3.004;2022-08-01T06:47:41;100750.22;;;16.58;100.00
24390;BME280;12510;56.468;-3.004;2022-08-01T06:50:09;100740.94;;;16.54;100.00
24390;BME280;12510;56.468;-3.004;2022-08-01T06:52:36;100737.88;;;16.73;100.00
24390;BME280;12510;56.468;-3.004;2022-08-01T06:55:04;100738.13;;;17.80;100.00
24390;BME280;12510;56.468;-3.004;2022-08-01T06:57:30;100734.97;;;18.29;100.00
24390;BME280;12510;56.468;-3.004;2022-08-01T06:59:57;100741.44;;;19.51;100.00
24390;BME280;12510;56.468;-3.004;2022-08-01T07:02:23;100742.78;;;20.19;100.00
24390;BME280;12510;56.468;-3.004;2022-08-01T07:04:49;100731.16;;;20.88;100.00
24390;BME280;12510;56.468;-3.004;2022-08-01T07:07:16;100733.28;;;21.40;100.00
24390;BME280;12510;56.468;-3.004;2022-08-01T07:09:42;100727.47;;;21.09;100.00
24390;BME280;12510;56.468;-3.004;2022-08-01T07:12:10;100728.41;;;22.42;100.00
24390;BME280;12510;56.468;-3.004;2022-08-01T07:14:37;100730.63;;;23.30;100.00
24390;BME280;12510;56.468;-3.004;2022-08-01T07:17:03;100724.56;;;23.85;100.00
24390;BME280;12510;56.468;-3.004;2022-08-01T07:19:29;100724.53;;;22.25;100.00
24390;BME280;12510;56.468;-3.004;2022-08-01T07:21:56;100724.53;;;23.16;100.00
24390;BME280;12510;56.468;-3.004;2022-08-01T07:24:22;100734.69;;;23.14;100.00
24390;BME280;12510;56.468;-3.004;2022-08-01T07:26:49;100732.31;;;24.00;100.00
24390;BME280;12510;56.468;-3.004;2022-08-01T07:29:15;100731.84;;;24.21;100.00
24390;BME280;12510;56.468;-3.004;2022-08-01T07:31:42;100728.78;;;22.53;100.00
24390;BME280;12510;56.468;-3.004;2022-08-01T07:34:08;100727.72;;;21.82;100.00
24390;BME280;12510;56.468;-3.004;2022-08-01T07:36:34;100721.41;;;23.19;100.00
24390;BME280;12510;56.468;-3.004;2022-08-01T07:39:01;100722.34;;;22.99;100.00
24390;BME280;12510;56.468;-3.004;2022-08-01T07:41:27;100728.16;;;23.53;100.00
24390;BME280;12510;56.468;-3.004;2022-08-01T07:43:54;100729.31;;;24.64;100.00
24390;BME280;12510;56.468;-3.004;2022-08-01T07:46:20;100717.56;;;24.88;100.00
24390;BME280;12510;56.468;-3.004;2022-08-01T07:48:46;100725.81;;;24.26;100.00
24390;BME280;12510;56.468;-3.004;2022-08-01T07:51:13;100719.94;;;25.39;100.00
24390;BME280;12510;56.468;-3.004;2022-08-01T07:53:39;100715.84;;;25.48;100.00
24390;BME280;12510;56.468;-3.004;2022-08-01T07:56:06;100718.38;;;25.79;97.93
24390;BME280;12510;56.468;-3.004;2022-08-01T07:58:33;100718.13;;;26.27;94.37
24390;BME280;12510;56.468;-3.004;2022-08-01T08:01:00;100714.25;;;25.29;95.04
24390;BME280;12510;56.468;-3.004;2022-08-01T08:03:26;100712.53;;;25.34;95.94
24390;BME280;12510;56.468;-3.004;2022-08-01T08:05:53;100722.44;;;24.12;99.51
24390;BME280;12510;56.468;-3.004;2022-08-01T08:08:19;100712.75;;;25.92;92.50
24390;BME280;12510;56.468;-3.004;2022-08-01T08:10:45;100715.34;;;26.10;86.35
24390;BME280;12510;56.468;-3.004;2022-08-01T08:13:12;100708.56;;;25.49;92.42
24390;BME280;12510;56.468;-3.004;2022-08-01T08:15:38;100711.69;;;26.17;91.71
24390;BME280;12510;56.468;-3.004;2022-08-01T08:18:05;100712.91;;;24.47;97.66
24390;BME280;12510;56.468;-3.004;2022-08-01T08:20:31;100702.00;;;26.73;86.20
24390;BME280;12510;56.468;-3.004;2022-08-01T08:22:58;100700.47;;;25.49;96.01
24390;BME280;12510;56.468;-3.004;2022-08-01T08:25:25;100700.34;;;24.89;93.93
24390;BME280;12510;56.468;-3.004;2022-08-01T08:27:51;100695.81;;;24.41;98.68
24390;BME280;12510;56.468;-3.004;2022-08-01T08:30:18;100697.38;;;24.79;98.63
24390;BME280;12510;56.468;-3.004;2022-08-01T08:32:45;100697.41;;;25.33;95.59
24390;BME280;12510;56.468;-3.004;2022-08-01T08:35:11;100700.56;;;23.65;100.00
24390;BME280;12510;56.468;-3.004;2022-08-01T08:37:38;100695.22;;;25.00;100.00
24390;BME280;12510;56.468;-3.004;2022-08-01T08:40:05;100696.34;;;25.82;89.12
24390;BME280;12510;56.468;-3.004;2022-08-01T08:42:33;100692.25;;;25.67;89.73
24390;BME280;12510;56.468;-3.004;2022-08-01T08:45:00;100694.78;;;24.23;94.56
24390;BME280;12510;56.468;-3.004;2022-08-01T08:47:27;100691.63;;;24.45;90.71
24390;BME280;12510;56.468;-3.004;2022-08-01T08:49:57;100693.78;;;23.37;93.92
24390;BME280;12510;56.468;-3.004;2022-08-01T08:52:25;100689.03;;;25.11;91.52
24390;BME280;12510;56.468;-3.004;2022-08-01T08:54:53;100692.97;;;25.63;91.29
24390;BME280;12510;56.468;-3.004;2022-08-01T08:57:20;100677.31;;;25.05;91.09
24390;BME280;12510;56.468;-3.004;2022-08-01T08:59:47;100685.34;;;27.45;80.86
24390;BME280;12510;56.468;-3.004;2022-08-01T09:02:14;100674.41;;;26.14;94.95
24390;BME280;12510;56.468;-3.004;2022-08-01T09:04:40;100687.16;;;25.12;92.37
24390;BME280;12510;56.468;-3.004;2022-08-01T09:07:07;100684.34;;;25.06;95.09
24390;BME280;12510;56.468;-3.004;2022-08-01T09:09:34;100679.19;;;26.00;91.25
24390;BME280;12510;56.468;-3.004;2022-08-01T09:12:01;100671.75;;;26.31;82.79
24390;BME280;12510;56.468;-3.004;2022-08-01T09:14:27;100673.50;;;25.72;87.80
24390;BME280;12510;56.468;-3.004;2022-08-01T09:17:07;100676.00;;;23.80;98.24
24390;BME280;12510;56.468;-3.004;2022-08-01T09:19:44;100678.91;;;24.34;96.81
24390;BME280;12510;56.468;-3.004;2022-08-01T09:22:16;100672.69;;;25.60;91.60
24390;BME280;12510;56.468;-3.004;2022-08-01T09:25:03;100670.22;;;24.81;93.25
24390;BME280;12510;56.468;-3.004;2022-08-01T09:27:30;100664.28;;;24.11;97.55
24390;BME280;12510;56.468;-3.004;2022-08-01T09:32:51;100656.53;;;26.99;79.09
24390;BME280;12510;56.468;-3.004;2022-08-01T09:35:29;100670.34;;;27.20;77.75
24390;BME280;12510;56.468;-3.004;2022-08-01T09:38:18;100664.81;;;25.58;80.58
24390;BME280;12510;56.468;-3.004;2022-08-01T09:40:58;100665.59;;;23.90;89.63
24390;BME280;12510;56.468;-3.004;2022-08-01T09:43:27;100662.31;;;26.74;79.43
24390;BME280;12510;56.468;-3.004;2022-08-01T09:45:55;100656.47;;;25.84;80.32
24390;BME280;12510;56.468;-3.004;2022-08-01T09:48:22;100657.03;;;26.09;78.69
24390;BME280;12510;56.468;-3.004;2022-08-01T09:50:51;100658.41;;;26.12;81.89
24390;BME280;12510;56.468;-3.004;2022-08-01T09:53:19;100661.81;;;27.11;70.27
24390;BME280;12510;56.468;-3.004;2022-08-01T09:55:46;100660.84;;;26.83;71.02
24390;BME280;12510;56.468;-3.004;2022-08-01T09:58:12;100661.53;;;27.07;70.89
24390;BME280;12510;56.468;-3.004;2022-08-01T10:00:39;100657.25;;;26.49;73.54
24390;BME280;12510;56.468;-3.004;2022-08-01T10:03:26;100652.09;;;26.06;80.55
24390;BME280;12510;56.468;-3.004;2022-08-01T10:05:53;100646.91;;;26.17;89.53
24390;BME280;12510;56.468;-3.004;2022-08-01T10:08:20;100650.56;;;25.99;66.51
24390;BME280;12510;56.468;-3.004;2022-08-01T10:11:07;100639.50;;;25.24;70.05
24390;BME280;12510;56.468;-3.004;2022-08-01T10:13:34;100636.09;;;27.08;67.29
24390;BME280;12510;56.468;-3.004;2022-08-01T10:16:01;100636.81;;;27.55;66.46
24390;BME280;12510;56.468;-3.004;2022-08-01T10:18:33;100634.66;;;26.84;68.38
24390;BME280;12510;56.468;-3.004;2022-08-01T10:21:03;100636.78;;;27.16;65.89
24390;BME280;12510;56.468;-3.004;2022-08-01T10:23:34;100636.59;;;26.42;75.44
24390;BME280;12510;56.468;-3.004;2022-08-01T10:26:02;100626.88;;;25.48;78.56
24390;BME280;12510;56.468;-3.004;2022-08-01T10:28:31;100622.09;;;26.32;76.92
24390;BME280;12510;56.468;-3.004;2022-08-01T10:31:01;100625.84;;;25.90;80.55
24390;BME280;12510;56.468;-3.004;2022-08-01T10:33:29;100630.50;;;24.64;85.02
24390;BME280;12510;56.468;-3.004;2022-08-01T10:35:57;100621.63;;;27.15;67.68
24390;BME280;12510;56.468;-3.004;2022-08-01T10:38:23;100616.63;;;26.89;58.81
24390;BME280;12510;56.468;-3.004;2022-08-01T10:40:50;100630.38;;;26.88;84.53
24390;BME280;12510;56.468;-3.004;2022-08-01T10:43:18;100621.28;;;26.31;67.21
24390;BME280;12510;56.468;-3.004;2022-08-01T10:45:45;100624.50;;;25.52;72.09
24390;BME280;12510;56.468;-3.004;2022-08-01T10:48:31;100622.41;;;26.64;77.01
24390;BME280;12510;56.468;-3.004;2022-08-01T10:51:04;100627.69;;;25.49;70.91
24390;BME280;12510;56.468;-3.004;2022-08-01T10:53:31;100624.13;;;25.13;70.61
24390;BME280;12510;56.468;-3.004;2022-08-01T10:56:01;100618.09;;;26.34;64.20
24390;BME280;12510;56.468;-3.004;2022-08-01T10:58:33;100616.91;;;24.29;72.64
24390;BME280;12510;56.468;-3.004;2022-08-01T11:03:42;100609.09;;;24.39;75.72
24390;BME280;12510;56.468;-3.004;2022-08-01T11:06:22;100602.50;;;25.43;67.75
24390;BME280;12510;56.468;-3.004;2022-08-01T11:08:51;100612.06;;;25.15;67.11
24390;BME280;12510;56.468;-3.004;2022-08-01T11:11:18;100601.63;;;24.95;66.88
24390;BME280;12510;56.468;-3.004;2022-08-01T11:16:31;100600.38;;;24.55;77.21
24390;BME280;12510;56.468;-3.004;2022-08-01T11:18:59;100590.72;;;24.66;70.38
24390;BME280;12510;56.468;-3.004;2022-08-01T11:27:21;100582.19;;;24.08;70.03
24390;BME280;12510;56.468;-3.004;2022-08-01T11:32:50;100565.19;;;24.81;64.74
24390;BME280;12510;56.468;-3.004;2022-08-01T11:35:17;100564.56;;;24.13;69.55
24390;BME280;12510;56.468;-3.004;2022-08-01T11:37:47;100570.69;;;23.02;77.94
24390;BME280;12510;56.468;-3.004;2022-08-01T11:42:48;100552.78;;;23.58;74.77
24390;BME280;12510;56.468;-3.004;2022-08-01T11:45:14;100552.81;;;24.07;77.36
24390;BME280;12510;56.468;-3.004;2022-08-01T11:47:49;100559.47;;;24.35;74.24
24390;BME280;12510;56.468;-3.004;2022-08-01T11:50:30;100554.56;;;24.98;75.72
24390;BME280;12510;56.468;-3.004;2022-08-01T11:53:02;100554.91;;;24.89;71.14
24390;BME280;12510;56.468;-3.004;2022-08-01T11:55:29;100551.44;;;24.16;76.21
24390;BME280;12510;56.468;-3.004;2022-08-01T11:58:04;100549.16;;;25.09;69.37
24390;BME280;12510;56.468;-3.004;2022-08-01T12:00:32;100544.06;;;24.12;73.63
24390;BME280;12510;56.468;-3.004;2022-08-01T12:03:04;100550.84;;;22.52;85.95
24390;BME280;12510;56.468;-3.004;2022-08-01T12:05:32;100550.59;;;23.48;83.52
24390;BME280;12510;56.468;-3.004;2022-08-01T12:08:00;100558.53;;;23.43;84.52
24390;BME280;12510;56.468;-3.004;2022-08-01T12:10:30;100545.22;;;22.86;87.60
24390;BME280;12510;56.468;-3.004;2022-08-01T12:13:04;100551.38;;;23.74;89.07
24390;BME280;12510;56.468;-3.004;2022-08-01T12:15:34;100548.22;;;24.38;88.44
24390;BME280;12510;56.468;-3.004;2022-08-01T12:18:06;100548.75;;;23.67;88.61
24390;BME280;12510;56.468;-3.004;2022-08-01T12:20:36;100549.97;;;22.84;93.13
24390;BME280;12510;56.468;-3.004;2022-08-01T12:23:05;100546.38;;;23.40;91.93
24390;BME280;12510;56.468;-3.004;2022-08-01T12:25:32;100545.44;;;24.02;88.47
24390;BME280;12510;56.468;-3.004;2022-08-01T12:28:04;100549.72;;;23.10;89.27
24390;BME280;12510;56.468;-3.004;2022-08-01T12:30:31;100535.84;;;22.95;88.57
24390;BME280;12510;56.468;-3.004;2022-08-01T12:33:03;100533.31;;;22.50;91.03
24390;BME280;12510;56.468;-3.004;2022-08-01T12:35:30;100532.56;;;23.37;92.04
24390;BME280;12510;56.468;-3.004;2022-08-01T12:38:07;100525.59;;;23.66;91.32
24390;BME280;12510;56.468;-3.004;2022-08-01T12:40:44;100519.59;;;24.01;91.27
24390;BME280;12510;56.468;-3.004;2022-08-01T12:43:17;100525.22;;;22.82;90.70
24390;BME280;12510;56.468;-3.004;2022-08-01T12:45:45;100516.50;;;23.49;91.81
24390;BME280;12510;56.468;-3.004;2022-08-01T12:48:15;100512.91;;;24.34;92.01
24390;BME280;12510;56.468;-3.004;2022-08-01T12:50:49;100524.78;;;24.57;87.91
24390;BME280;12510;56.468;-3.004;2022-08-01T12:53:16;100506.50;;;23.56;91.96
24390;BME280;12510;56.468;-3.004;2022-08-01T12:55:55;100505.69;;;22.93;90.08
24390;BME280;12510;56.468;-3.004;2022-08-01T12:58:22;100507.78;;;23.84;88.68
24390;BME280;12510;56.468;-3.004;2022-08-01T13:00:50;100492.34;;;23.30;92.20
24390;BME280;12510;56.468;-3.004;2022-08-01T13:03:28;100498.38;;;23.25;92.30
24390;BME280;12510;56.468;-3.004;2022-08-01T13:05:59;100500.06;;;23.75;88.33
24390;BME280;12510;56.468;-3.004;2022-08-01T13:08:31;100491.41;;;22.99;90.54
24390;BME280;12510;56.468;-3.004;2022-08-01T13:11:06;100485.59;;;24.19;91.23
24390;BME280;12510;56.468;-3.004;2022-08-01T13:16:13;100499.25;;;22.50;93.46
24390;BME280;12510;56.468;-3.004;2022-08-01T13:18:40;100484.88;;;23.32;96.39
24390;BME280;12510;56.468;-3.004;2022-08-01T13:21:18;100486.34;;;23.47;94.69